sensor_id;sensor_type;location;lat;lon;timestamp;P1;durP1;ratioP1;P2;durP2;ratioP2
62788;SDS011;66401;42.016;21.454;2023-06-26T00:00:25;17.87;;;15.57;;
62788;SDS011;66401;42.016;21.454;2023-06-26T00:02:50;21.20;;;16.53;;
62788;SDS011;66401;42.016;21.454;2023-06-26T00:05:16;19.93;;;16.60;;
62788;SDS011;66401;42.016;21.454;2023-06-26T00:07:41;23.47;;;16.83;;
62788;SDS011;66401;42.016;21.454;2023-06-26T00:10:07;24.17;;;16.57;;
62788;SDS011;66401;42.016;21.454;2023-06-26T00:12:33;25.30;;;17.13;;
62788;SDS011;66401;42.016;21.454;2023-06-26T00:14:58;24.93;;;16.93;;
62788;SDS011;66401;42.016;21.454;2023-06-26T00:17:24;20.60;;;16.63;;
62788;SDS011;66401;42.016;21.454;2023-06-26T00:19:50;22.07;;;17.13;;
62788;SDS011;66401;42.016;21.454;2023-06-26T00:22:16;23.67;;;17.87;;
62788;SDS011;66401;42.016;21.454;2023-06-26T00:24:41;23.60;;;17.37;;
62788;SDS011;66401;42.016;21.454;2023-06-26T00:27:07;21.67;;;16.87;;
62788;SDS011;66401;42.016;21.454;2023-06-26T00:29:33;22.03;;;17.73;;
62788;SDS011;66401;42.016;21.454;2023-06-26T00:31:58;19.80;;;15.77;;
62788;SDS011;66401;42.016;21.454;2023-06-26T00:34:24;22.00;;;17.33;;
62788;SDS011;66401;42.016;21.454;2023-06-26T00:36:49;24.00;;;18.53;;
62788;SDS011;66401;42.016;21.454;2023-06-26T00:39:15;24.60;;;18.60;;
62788;SDS011;66401;42.016;21.454;2023-06-26T00:41:41;22.10;;;17.37;;
62788;SDS011;66401;42.016;21.454;2023-06-26T00:44:06;19.20;;;16.00;;
62788;SDS011;66401;42.016;21.454;2023-06-26T00:46:32;21.47;;;17.13;;
62788;SDS011;66401;42.016;21.454;2023-06-26T00:49:00;24.27;;;17.17;;
62788;SDS011;66401;42.016;21.454;2023-06-26T00:51:27;24.37;;;18.37;;
62788;SDS011;66401;42.016;21.454;2023-06-26T00:53:57;26.20;;;18.43;;
62788;SDS011;66401;42.016;21.454;2023-06-26T00:56:23;21.17;;;17.57;;
62788;SDS011;66401;42.016;21.454;2023-06-26T00:58:48;24.13;;;17.53;;
62788;SDS011;66401;42.016;21.454;2023-06-26T01:01:14;21.67;;;17.17;;
62788;SDS011;66401;42.016;21.454;2023-06-26T01:03:45;23.50;;;17.77;;
62788;SDS011;66401;42.016;21.454;2023-06-26T01:06:16;21.40;;;17.77;;
62788;SDS011;66401;42.016;21.454;2023-06-26T01:08:43;22.50;;;17.47;;
62788;SDS011;66401;42.016;21.454;2023-06-26T01:11:10;23.87;;;18.33;;
62788;SDS011;66401;42.016;21.454;2023-06-26T01:13:36;20.93;;;17.10;;
62788;SDS011;66401;42.016;21.454;2023-06-26T01:16:02;26.83;;;19.43;;
62788;SDS011;66401;42.016;21.454;2023-06-26T01:18:29;21.37;;;17.47;;
62788;SDS011;66401;42.016;21.454;2023-06-26T01:20:57;22.73;;;17.30;;
62788;SDS011;66401;42.016;21.454;2023-06-26T01:26:20;22.93;;;17.50;;
62788;SDS011;66401;42.016;21.454;2023-06-26T01:28:49;26.37;;;18.50;;
62788;SDS011;66401;42.016;21.454;2023-06-26T01:31:16;22.87;;;17.47;;
62788;SDS011;66401;42.016;21.454;2023-06-26T01:33:44;23.57;;;17.67;;
62788;SDS011;66401;42.016;21.454;2023-06-26T01:36:11;22.63;;;18.23;;
62788;SDS011;66401;42.016;21.454;2023-06-26T01:38:37;24.73;;;18.83;;
62788;SDS011;66401;42.016;21.454;2023-06-26T01:41:03;24.30;;;18.00;;
62788;SDS011;66401;42.016;21.454;2023-06-26T01:43:33;22.53;;;17.27;;
62788;SDS011;66401;42.016;21.454;2023-06-26T01:46:10;22.93;;;17.57;;
62788;SDS011;66401;42.016;21.454;2023-06-26T01:48:43;24.10;;;17.13;;
62788;SDS011;66401;42.016;21.454;2023-06-26T01:51:31;21.60;;;16.63;;
62788;SDS011;66401;42.016;21.454;2023-06-26T01:54:13;21.83;;;17.63;;
62788;SDS011;66401;42.016;21.454;2023-06-26T01:56:42;23.30;;;16.77;;
62788;SDS011;66401;42.016;21.454;2023-06-26T01:59:09;22.40;;;16.30;;
62788;SDS011;66401;42.016;21.454;2023-06-26T02:01:39;21.87;;;16.60;;
62788;SDS011;66401;42.016;21.454;2023-06-26T02:04:04;19.97;;;16.23;;
62788;SDS011;66401;42.016;21.454;2023-06-26T02:06:30;22.83;;;17.00;;
62788;SDS011;66401;42.016;21.454;2023-06-26T02:08:55;24.83;;;16.27;;
62788;SDS011;66401;42.016;21.454;2023-06-26T02:11:22;24.03;;;17.47;;
62788;SDS011;66401;42.016;21.454;2023-06-26T02:13:48;22.80;;;16.53;;
62788;SDS011;66401;42.016;21.454;2023-06-26T02:16:13;21.73;;;16.77;;
62788;SDS011;66401;42.016;21.454;2023-06-26T02:18:39;22.70;;;17.53;;
62788;SDS011;66401;42.016;21.454;2023-06-26T02:21:04;25.63;;;17.87;;
62788;SDS011;66401;42.016;21.454;2023-06-26T02:23:30;22.10;;;17.30;;
62788;SDS011;66401;42.016;21.454;2023-06-26T02:25:56;24.03;;;18.10;;
62788;SDS011;66401;42.016;21.454;2023-06-26T02:28:21;20.27;;;16.90;;
62788;SDS011;66401;42.016;21.454;2023-06-26T02:30:47;22.20;;;17.33;;
62788;SDS011;66401;42.016;21.454;2023-06-26T02:33:12;21.10;;;17.37;;
62788;SDS011;66401;42.016;21.454;2023-06-26T02:35:38;22.87;;;18.17;;
62788;SDS011;66401;42.016;21.454;2023-06-26T02:38:03;23.53;;;18.47;;
62788;SDS011;66401;42.016;21.454;2023-06-26T02:40:29;23.67;;;17.67;;
62788;SDS011;66401;42.016;21.454;2023-06-26T02:42:55;21.37;;;16.93;;
62788;SDS011;66401;42.016;21.454;2023-06-26T02:45:20;23.10;;;18.10;;
62788;SDS011;66401;42.016;21.454;2023-06-26T02:47:46;23.43;;;17.50;;
62788;SDS011;66401;42.016;21.454;2023-06-26T02:50:11;24.77;;;17.60;;
62788;SDS011;66401;42.016;21.454;2023-06-26T02:52:37;23.77;;;16.97;;
62788;SDS011;66401;42.016;21.454;2023-06-26T02:55:02;22.60;;;15.83;;
62788;SDS011;66401;42.016;21.454;2023-06-26T02:57:28;22.97;;;16.00;;
62788;SDS011;66401;42.016;21.454;2023-06-26T02:59:53;20.20;;;15.80;;
62788;SDS011;66401;42.016;21.454;2023-06-26T03:02:19;20.43;;;16.20;;
62788;SDS011;66401;42.016;21.454;2023-06-26T03:04:44;21.67;;;15.77;;
62788;SDS011;66401;42.016;21.454;2023-06-26T03:07:10;19.70;;;16.00;;
62788;SDS011;66401;42.016;21.454;2023-06-26T03:09:35;22.67;;;15.97;;
62788;SDS011;66401;42.016;21.454;2023-06-26T03:12:01;18.87;;;15.17;;
62788;SDS011;66401;42.016;21.454;2023-06-26T03:14:26;21.97;;;14.83;;
62788;SDS011;66401;42.016;21.454;2023-06-26T03:16:52;17.60;;;14.27;;
62788;SDS011;66401;42.016;21.454;2023-06-26T03:19:18;19.43;;;14.73;;
62788;SDS011;66401;42.016;21.454;2023-06-26T03:21:43;19.60;;;15.20;;
62788;SDS011;66401;42.016;21.454;2023-06-26T03:24:09;21.03;;;14.60;;
62788;SDS011;66401;42.016;21.454;2023-06-26T03:26:34;20.33;;;15.03;;
62788;SDS011;66401;42.016;21.454;2023-06-26T03:29:00;19.03;;;13.90;;
62788;SDS011;66401;42.016;21.454;2023-06-26T03:31:25;18.03;;;14.50;;
62788;SDS011;66401;42.016;21.454;2023-06-26T03:33:50;19.47;;;14.13;;
62788;SDS011;66401;42.016;21.454;2023-06-26T03:36:16;19.03;;;11.50;;
62788;SDS011;66401;42.016;21.454;2023-06-26T03:38:41;18.90;;;13.97;;
62788;SDS011;66401;42.016;21.454;2023-06-26T03:41:07;18.87;;;14.40;;
62788;SDS011;66401;42.016;21.454;2023-06-26T03:43:33;16.37;;;10.90;;
62788;SDS011;66401;42.016;21.454;2023-06-26T03:45:58;19.10;;;13.80;;
62788;SDS011;66401;42.016;21.454;2023-06-26T03:48:23;17.40;;;11.53;;
62788;SDS011;66401;42.016;21.454;2023-06-26T03:50:49;18.07;;;11.53;;
62788;SDS011;66401;42.016;21.454;2023-06-26T03:53:15;16.07;;;10.87;;
62788;SDS011;66401;42.016;21.454;2023-06-26T03:55:40;21.50;;;15.30;;
62788;SDS011;66401;42.016;21.454;2023-06-26T03:58:05;18.73;;;13.87;;
62788;SDS011;66401;42.016;21.454;2023-06-26T04:00:31;13.83;;;10.20;;
62788;SDS011;66401;42.016;21.454;2023-06-26T04:02:56;21.03;;;14.40;;
62788;SDS011;66401;42.016;21.454;2023-06-26T04:05:22;18.17;;;10.73;;
62788;SDS011;66401;42.016;21.454;2023-06-26T04:07:51;20.43;;;13.03;;
62788;SDS011;66401;42.016;21.454;2023-06-26T04:10:17;20.80;;;12.37;;
62788;SDS011;66401;42.016;21.454;2023-06-26T04:12:44;19.83;;;12.20;;
62788;SDS011;66401;42.016;21.454;2023-06-26T04:15:10;20.87;;;12.17;;
62788;SDS011;66401;42.016;21.454;2023-06-26T04:17:35;20.87;;;11.27;;
62788;SDS011;66401;42.016;21.454;2023-06-26T04:20:01;24.77;;;17.70;;
62788;SDS011;66401;42.016;21.454;2023-06-26T04:22:31;27.73;;;19.43;;
62788;SDS011;66401;42.016;21.454;2023-06-26T04:24:57;29.87;;;14.93;;
62788;SDS011;66401;42.016;21.454;2023-06-26T04:27:28;19.33;;;12.73;;
62788;SDS011;66401;42.016;21.454;2023-06-26T04:30:09;29.53;;;15.30;;
62788;SDS011;66401;42.016;21.454;2023-06-26T04:32:35;22.87;;;12.70;;
62788;SDS011;66401;42.016;21.454;2023-06-26T04:35:00;23.57;;;16.80;;
62788;SDS011;66401;42.016;21.454;2023-06-26T04:37:26;22.03;;;12.33;;
62788;SDS011;66401;42.016;21.454;2023-06-26T04:39:52;25.07;;;14.07;;
62788;SDS011;66401;42.016;21.454;2023-06-26T04:42:18;29.40;;;18.03;;
62788;SDS011;66401;42.016;21.454;2023-06-26T04:44:46;20.43;;;14.03;;
62788;SDS011;66401;42.016;21.454;2023-06-26T04:47:12;23.60;;;17.57;;
62788;SDS011;66401;42.016;21.454;2023-06-26T04:49:40;26.23;;;18.23;;
62788;SDS011;66401;42.016;21.454;2023-06-26T04:52:11;25.13;;;17.73;;
62788;SDS011;66401;42.016;21.454;2023-06-26T04:54:41;22.47;;;17.90;;
62788;SDS011;66401;42.016;21.454;2023-06-26T04:57:09;25.60;;;18.73;;
62788;SDS011;66401;42.016;21.454;2023-06-26T04:59:37;26.43;;;17.40;;
62788;SDS011;66401;42.016;21.454;2023-06-26T05:02:06;23.63;;;17.77;;
62788;SDS011;66401;42.016;21.454;2023-06-26T05:04:31;24.43;;;17.73;;
62788;SDS011;66401;42.016;21.454;2023-06-26T05:06:57;22.37;;;18.23;;
62788;SDS011;66401;42.016;21.454;2023-06-26T05:09:22;22.90;;;17.10;;
62788;SDS011;66401;42.016;21.454;2023-06-26T05:11:48;19.57;;;15.20;;
62788;SDS011;66401;42.016;21.454;2023-06-26T05:14:13;20.70;;;15.33;;
62788;SDS011;66401;42.016;21.454;2023-06-26T05:16:39;26.20;;;14.93;;
62788;SDS011;66401;42.016;21.454;2023-06-26T05:19:04;18.23;;;14.73;;
62788;SDS011;66401;42.016;21.454;2023-06-26T05:21:30;17.77;;;13.60;;
62788;SDS011;66401;42.016;21.454;2023-06-26T05:23:56;19.70;;;14.03;;
62788;SDS011;66401;42.016;21.454;2023-06-26T05:26:22;17.77;;;13.13;;
62788;SDS011;66401;42.016;21.454;2023-06-26T05:28:48;22.00;;;14.07;;
62788;SDS011;66401;42.016;21.454;2023-06-26T05:31:14;18.13;;;14.57;;
62788;SDS011;66401;42.016;21.454;2023-06-26T05:33:42;16.63;;;13.37;;
62788;SDS011;66401;42.016;21.454;2023-06-26T05:36:09;20.13;;;14.50;;
62788;SDS011;66401;42.016;21.454;2023-06-26T05:38:34;17.97;;;13.20;;
62788;SDS011;66401;42.016;21.454;2023-06-26T05:41:00;22.10;;;13.37;;
62788;SDS011;66401;42.016;21.454;2023-06-26T05:43:26;18.17;;;14.33;;
62788;SDS011;66401;42.016;21.454;2023-06-26T05:45:51;18.37;;;13.67;;
62788;SDS011;66401;42.016;21.454;2023-06-26T05:48:17;17.10;;;13.63;;
62788;SDS011;66401;42.016;21.454;2023-06-26T05:50:42;18.13;;;13.03;;
62788;SDS011;66401;42.016;21.454;2023-06-26T05:53:09;19.37;;;13.70;;
62788;SDS011;66401;42.016;21.454;2023-06-26T05:55:34;16.03;;;13.00;;
62788;SDS011;66401;42.016;21.454;2023-06-26T05:58:02;18.30;;;13.20;;
62788;SDS011;66401;42.016;21.454;2023-06-26T06:00:28;18.20;;;14.03;;
62788;SDS011;66401;42.016;21.454;2023-06-26T06:02:53;17.73;;;13.97;;
62788;SDS011;66401;42.016;21.454;2023-06-26T06:05:20;19.43;;;13.17;;
62788;SDS011;66401;42.016;21.454;2023-06-26T06:07:46;18.20;;;12.73;;
62788;SDS011;66401;42.016;21.454;2023-06-26T06:10:12;17.43;;;13.40;;
62788;SDS011;66401;42.016;21.454;2023-06-26T06:12:38;18.30;;;14.00;;
62788;SDS011;66401;42.016;21.454;2023-06-26T06:15:04;18.63;;;13.70;;
62788;SDS011;66401;42.016;21.454;2023-06-26T06:17:30;16.20;;;13.53;;
62788;SDS011;66401;42.016;21.454;2023-06-26T06:19:55;17.40;;;13.33;;
62788;SDS011;66401;42.016;21.454;2023-06-26T06:22:22;15.63;;;13.23;;
62788;SDS011;66401;42.016;21.454;2023-06-26T06:24:48;18.10;;;13.37;;
62788;SDS011;66401;42.016;21.454;2023-06-26T06:27:15;18.07;;;13.57;;
62788;SDS011;66401;42.016;21.454;2023-06-26T06:29:41;19.67;;;14.70;;
62788;SDS011;66401;42.016;21.454;2023-06-26T06:32:06;20.10;;;14.23;;
62788;SDS011;66401;42.016;21.454;2023-06-26T06:34:32;17.47;;;13.53;;
62788;SDS011;66401;42.016;21.454;2023-06-26T06:36:58;21.97;;;14.50;;
62788;SDS011;66401;42.016;21.454;2023-06-26T06:39:23;17.17;;;13.73;;
62788;SDS011;66401;42.016;21.454;2023-06-26T06:41:49;16.43;;;12.97;;
62788;SDS011;66401;42.016;21.454;2023-06-26T06:44:14;15.87;;;13.57;;
62788;SDS011;66401;42.016;21.454;2023-06-26T06:46:40;16.80;;;13.63;;
62788;SDS011;66401;42.016;21.454;2023-06-26T06:49:05;17.47;;;13.57;;
62788;SDS011;66401;42.016;21.454;2023-06-26T06:51:31;18.00;;;12.90;;
62788;SDS011;66401;42.016;21.454;2023-06-26T06:53:56;16.83;;;14.00;;
62788;SDS011;66401;42.016;21.454;2023-06-26T06:56:22;18.90;;;14.73;;
62788;SDS011;66401;42.016;21.454;2023-06-26T06:58:47;23.17;;;13.80;;
62788;SDS011;66401;42.016;21.454;2023-06-26T07:01:13;16.90;;;14.97;;
62788;SDS011;66401;42.016;21.454;2023-06-26T08:09:47;12.60;;;10.57;;
62788;SDS011;66401;42.016;21.454;2023-06-26T08:12:12;11.90;;;9.63;;
62788;SDS011;66401;42.016;21.454;2023-06-26T08:14:38;20.03;;;11.13;;
62788;SDS011;66401;42.016;21.454;2023-06-26T08:17:04;16.23;;;12.00;;
62788;SDS011;66401;42.016;21.454;2023-06-26T08:19:29;14.73;;;11.97;;
62788;SDS011;66401;42.016;21.454;2023-06-26T08:21:55;13.40;;;11.40;;
62788;SDS011;66401;42.016;21.454;2023-06-26T08:24:20;10.63;;;8.97;;
62788;SDS011;66401;42.016;21.454;2023-06-26T08:26:46;12.67;;;10.00;;
62788;SDS011;66401;42.016;21.454;2023-06-26T08:29:12;9.73;;;8.47;;
62788;SDS011;66401;42.016;21.454;2023-06-26T08:31:38;13.30;;;9.00;;
62788;SDS011;66401;42.016;21.454;2023-06-26T08:34:04;12.30;;;9.33;;
62788;SDS011;66401;42.016;21.454;2023-06-26T08:36:31;10.37;;;9.00;;
62788;SDS011;66401;42.016;21.454;2023-06-26T08:38:57;12.87;;;9.77;;
62788;SDS011;66401;42.016;21.454;2023-06-26T08:41:23;11.30;;;9.63;;
62788;SDS011;66401;42.016;21.454;2023-06-26T08:43:48;12.60;;;9.80;;
62788;SDS011;66401;42.016;21.454;2023-06-26T08:46:16;12.93;;;9.60;;
62788;SDS011;66401;42.016;21.454;2023-06-26T08:48:44;14.37;;;10.33;;
62788;SDS011;66401;42.016;21.454;2023-06-26T08:51:19;11.33;;;10.00;;
62788;SDS011;66401;42.016;21.454;2023-06-26T08:53:55;13.33;;;9.73;;
62788;SDS011;66401;42.016;21.454;2023-06-26T08:56:28;14.30;;;9.97;;
62788;SDS011;66401;42.016;21.454;2023-06-26T08:58:58;15.70;;;9.97;;
62788;SDS011;66401;42.016;21.454;2023-06-26T09:01:24;14.17;;;9.93;;
62788;SDS011;66401;42.016;21.454;2023-06-26T09:03:52;11.17;;;9.30;;
62788;SDS011;66401;42.016;21.454;2023-06-26T09:06:18;13.03;;;10.00;;
62788;SDS011;66401;42.016;21.454;2023-06-26T09:08:43;10.03;;;8.93;;
62788;SDS011;66401;42.016;21.454;2023-06-26T09:11:09;11.83;;;8.60;;
62788;SDS011;66401;42.016;21.454;2023-06-26T09:13:34;9.83;;;8.90;;
62788;SDS011;66401;42.016;21.454;2023-06-26T09:16:04;11.90;;;8.60;;
62788;SDS011;66401;42.016;21.454;2023-06-26T09:18:31;10.77;;;8.97;;
62788;SDS011;66401;42.016;21.454;2023-06-26T09:20:58;11.40;;;8.10;;
62788;SDS011;66401;42.016;21.454;2023-06-26T09:23:23;10.43;;;9.43;;
62788;SDS011;66401;42.016;21.454;2023-06-26T09:25:49;11.67;;;8.27;;
62788;SDS011;66401;42.016;21.454;2023-06-26T09:28:16;15.57;;;9.43;;
62788;SDS011;66401;42.016;21.454;2023-06-26T09:30:43;17.03;;;8.77;;
62788;SDS011;66401;42.016;21.454;2023-06-26T09:33:17;9.53;;;8.30;;
62788;SDS011;66401;42.016;21.454;2023-06-26T09:35:44;11.53;;;7.53;;
62788;SDS011;66401;42.016;21.454;2023-06-26T09:38:11;13.80;;;7.93;;
62788;SDS011;66401;42.016;21.454;2023-06-26T09:40:37;9.83;;;7.30;;
62788;SDS011;66401;42.016;21.454;2023-06-26T09:43:07;10.57;;;6.83;;
62788;SDS011;66401;42.016;21.454;2023-06-26T09:45:33;9.63;;;7.13;;
62788;SDS011;66401;42.016;21.454;2023-06-26T09:48:01;9.50;;;7.77;;
62788;SDS011;66401;42.016;21.454;2023-06-26T09:50:30;9.70;;;7.47;;
62788;SDS011;66401;42.016;21.454;2023-06-26T09:53:06;8.17;;;7.37;;
62788;SDS011;66401;42.016;21.454;2023-06-26T09:55:36;9.60;;;8.23;;
62788;SDS011;66401;42.016;21.454;2023-06-26T09:58:02;12.30;;;7.80;;
62788;SDS011;66401;42.016;21.454;2023-06-26T10:00:29;12.43;;;7.87;;
62788;SDS011;66401;42.016;21.454;2023-06-26T10:02:56;12.30;;;9.73;;
62788;SDS011;66401;42.016;21.454;2023-06-26T10:05:21;14.77;;;10.97;;
62788;SDS011;66401;42.016;21.454;2023-06-26T10:07:47;14.13;;;10.63;;
62788;SDS011;66401;42.016;21.454;2023-06-26T10:10:13;15.43;;;11.67;;
62788;SDS011;66401;42.016;21.454;2023-06-26T10:12:41;16.60;;;11.83;;
62788;SDS011;66401;42.016;21.454;2023-06-26T10:15:10;14.77;;;11.93;;
62788;SDS011;66401;42.016;21.454;2023-06-26T10:17:43;13.57;;;10.50;;
62788;SDS011;66401;42.016;21.454;2023-06-26T10:20:11;14.30;;;10.67;;
62788;SDS011;66401;42.016;21.454;2023-06-26T10:22:43;19.07;;;10.50;;
62788;SDS011;66401;42.016;21.454;2023-06-26T10:25:12;13.63;;;9.83;;
62788;SDS011;66401;42.016;21.454;2023-06-26T10:27:58;13.90;;;10.03;;
62788;SDS011;66401;42.016;21.454;2023-06-26T10:30:28;11.70;;;9.27;;
62788;SDS011;66401;42.016;21.454;2023-06-26T10:32:57;10.53;;;9.30;;
62788;SDS011;66401;42.016;21.454;2023-06-26T10:35:24;12.53;;;10.27;;
62788;SDS011;66401;42.016;21.454;2023-06-26T10:37:50;12.73;;;9.53;;
62788;SDS011;66401;42.016;21.454;2023-06-26T10:40:24;10.63;;;9.37;;
62788;SDS011;66401;42.016;21.454;2023-06-26T10:42:50;10.17;;;8.67;;
62788;SDS011;66401;42.016;21.454;2023-06-26T10:45:19;9.43;;;8.50;;
62788;SDS011;66401;42.016;21.454;2023-06-26T10:47:47;10.50;;;8.00;;
62788;SDS011;66401;42.016;21.454;2023-06-26T11:03:37;10.43;;;6.80;;
62788;SDS011;66401;42.016;21.454;2023-06-26T11:09:06;6.07;;;5.47;;
62788;SDS011;66401;42.016;21.454;2023-06-26T11:14:18;6.47;;;5.87;;
62788;SDS011;66401;42.016;21.454;2023-06-26T11:17:02;5.87;;;5.33;;
62788;SDS011;66401;42.016;21.454;2023-06-26T11:19:28;5.63;;;5.13;;
62788;SDS011;66401;42.016;21.454;2023-06-26T11:22:04;7.43;;;5.60;;
62788;SDS011;66401;42.016;21.454;2023-06-26T11:24:30;8.63;;;5.50;;
62788;SDS011;66401;42.016;21.454;2023-06-26T11:26:59;6.03;;;5.53;;
62788;SDS011;66401;42.016;21.454;2023-06-26T11:29:25;6.87;;;5.63;;
62788;SDS011;66401;42.016;21.454;2023-06-26T11:31:57;5.73;;;5.23;;
62788;SDS011;66401;42.016;21.454;2023-06-26T11:34:29;6.87;;;5.57;;
62788;SDS011;66401;42.016;21.454;2023-06-26T11:36:56;6.33;;;5.73;;
62788;SDS011;66401;42.016;21.454;2023-06-26T11:39:21;5.57;;;5.17;;
62788;SDS011;66401;42.016;21.454;2023-06-26T11:41:47;5.73;;;5.17;;
62788;SDS011;66401;42.016;21.454;2023-06-26T11:44:13;5.40;;;4.97;;
62788;SDS011;66401;42.016;21.454;2023-06-26T11:46:45;5.97;;;5.03;;
62788;SDS011;66401;42.016;21.454;2023-06-26T11:49:11;5.77;;;5.27;;
62788;SDS011;66401;42.016;21.454;2023-06-26T11:51:36;5.60;;;5.10;;
62788;SDS011;66401;42.016;21.454;2023-06-26T11:54:02;6.10;;;5.53;;
62788;SDS011;66401;42.016;21.454;2023-06-26T11:56:29;7.77;;;5.43;;
62788;SDS011;66401;42.016;21.454;2023-06-26T12:01:39;5.83;;;4.70;;
62788;SDS011;66401;42.016;21.454;2023-06-26T12:04:10;5.20;;;4.80;;
62788;SDS011;66401;42.016;21.454;2023-06-26T12:06:40;5.00;;;4.50;;
62788;SDS011;66401;42.016;21.454;2023-06-26T12:09:24;4.87;;;4.37;;
62788;SDS011;66401;42.016;21.454;2023-06-26T12:11:52;5.97;;;4.70;;
62788;SDS011;66401;42.016;21.454;2023-06-26T12:14:20;5.27;;;4.23;;
62788;SDS011;66401;42.016;21.454;2023-06-26T12:16:49;4.07;;;3.77;;
62788;SDS011;66401;42.016;21.454;2023-06-26T12:19:15;4.50;;;4.10;;
62788;SDS011;66401;42.016;21.454;2023-06-26T12:24:07;5.67;;;3.37;;
62788;SDS011;66401;42.016;21.454;2023-06-26T12:26:33;5.33;;;3.70;;
62788;SDS011;66401;42.016;21.454;2023-06-26T12:29:03;4.23;;;3.83;;
62788;SDS011;66401;42.016;21.454;2023-06-26T12:31:32;5.87;;;3.93;;
62788;SDS011;66401;42.016;21.454;2023-06-26T12:33:59;4.93;;;4.40;;
62788;SDS011;66401;42.016;21.454;2023-06-26T12:36:25;4.27;;;3.60;;
62788;SDS011;66401;42.016;21.454;2023-06-26T12:38:53;4.50;;;4.03;;
62788;SDS011;66401;42.016;21.454;2023-06-26T12:41:19;3.50;;;3.20;;
62788;SDS011;66401;42.016;21.454;2023-06-26T12:43:48;3.90;;;3.10;;
62788;SDS011;66401;42.016;21.454;2023-06-26T12:46:15;4.23;;;3.83;;
62788;SDS011;66401;42.016;21.454;2023-06-26T12:48:41;4.07;;;3.70;;
62788;SDS011;66401;42.016;21.454;2023-06-26T12:51:17;5.77;;;3.60;;
62788;SDS011;66401;42.016;21.454;2023-06-26T12:53:50;4.00;;;3.57;;
62788;SDS011;66401;42.016;21.454;2023-06-26T12:56:16;4.23;;;3.43;;
62788;SDS011;66401;42.016;21.454;2023-06-26T12:58:42;4.00;;;3.60;;
62788;SDS011;66401;42.016;21.454;2023-06-26T13:01:07;4.10;;;3.70;;
62788;SDS011;66401;42.016;21.454;2023-06-26T13:03:39;3.60;;;3.30;;
62788;SDS011;66401;42.016;21.454;2023-06-26T13:06:05;4.03;;;3.47;;
62788;SDS011;66401;42.016;21.454;2023-06-26T13:08:31;3.90;;;3.40;;
62788;SDS011;66401;42.016;21.454;2023-06-26T13:10:57;4.87;;;3.70;;
62788;SDS011;66401;42.016;21.454;2023-06-26T13:13:22;4.03;;;3.63;;
62788;SDS011;66401;42.016;21.454;2023-06-26T13:15:48;4.07;;;3.60;;
62788;SDS011;66401;42.016;21.454;2023-06-26T13:18:13;3.83;;;3.50;;
62788;SDS011;66401;42.016;21.454;2023-06-26T13:20:39;4.10;;;3.70;;
62788;SDS011;66401;42.016;21.454;2023-06-26T13:23:04;4.47;;;4.10;;
62788;SDS011;66401;42.016;21.454;2023-06-26T13:25:30;4.60;;;3.97;;
62788;SDS011;66401;42.016;21.454;2023-06-26T13:27:55;7.07;;;4.10;;
62788;SDS011;66401;42.016;21.454;2023-06-26T13:30:21;5.57;;;4.00;;
62788;SDS011;66401;42.016;21.454;2023-06-26T13:32:47;3.83;;;3.50;;
62788;SDS011;66401;42.016;21.454;2023-06-26T13:35:12;4.33;;;3.87;;
62788;SDS011;66401;42.016;21.454;2023-06-26T13:37:39;4.17;;;3.67;;
62788;SDS011;66401;42.016;21.454;2023-06-26T13:40:05;5.67;;;3.83;;
62788;SDS011;66401;42.016;21.454;2023-06-26T13:42:32;4.43;;;4.03;;
62788;SDS011;66401;42.016;21.454;2023-06-26T13:44:58;4.10;;;3.70;;
62788;SDS011;66401;42.016;21.454;2023-06-26T13:47:23;4.37;;;4.03;;
62788;SDS011;66401;42.016;21.454;2023-06-26T13:49:49;7.87;;;4.40;;
62788;SDS011;66401;42.016;21.454;2023-06-26T13:52:14;6.47;;;4.47;;
62788;SDS011;66401;42.016;21.454;2023-06-26T13:54:40;5.20;;;4.40;;
62788;SDS011;66401;42.016;21.454;2023-06-26T13:57:07;4.10;;;3.80;;
62788;SDS011;66401;42.016;21.454;2023-06-26T13:59:33;5.50;;;4.47;;
62788;SDS011;66401;42.016;21.454;2023-06-26T14:01:59;4.60;;;4.20;;
62788;SDS011;66401;42.016;21.454;2023-06-26T14:04:38;4.50;;;4.10;;
62788;SDS011;66401;42.016;21.454;2023-06-26T14:07:04;4.47;;;4.17;;
62788;SDS011;66401;42.016;21.454;2023-06-26T14:09:30;4.67;;;3.83;;
62788;SDS011;66401;42.016;21.454;2023-06-26T14:11:55;4.77;;;4.30;;
62788;SDS011;66401;42.016;21.454;2023-06-26T14:14:21;4.20;;;3.53;;
62788;SDS011;66401;42.016;21.454;2023-06-26T14:16:48;4.37;;;3.97;;
62788;SDS011;66401;42.016;21.454;2023-06-26T14:19:14;5.20;;;4.27;;
62788;SDS011;66401;42.016;21.454;2023-06-26T14:21:42;4.37;;;3.97;;
62788;SDS011;66401;42.016;21.454;2023-06-26T14:24:08;4.37;;;3.97;;
62788;SDS011;66401;42.016;21.454;2023-06-26T14:26:33;6.53;;;3.87;;
62788;SDS011;66401;42.016;21.454;2023-06-26T14:28:59;5.10;;;4.67;;
62788;SDS011;66401;42.016;21.454;2023-06-26T14:31:25;5.13;;;4.63;;
62788;SDS011;66401;42.016;21.454;2023-06-26T14:33:51;4.63;;;4.10;;
62788;SDS011;66401;42.016;21.454;2023-06-26T14:36:17;4.47;;;4.07;;
62788;SDS011;66401;42.016;21.454;2023-06-26T14:38:44;3.70;;;3.40;;
62788;SDS011;66401;42.016;21.454;2023-06-26T14:41:09;5.37;;;4.87;;
62788;SDS011;66401;42.016;21.454;2023-06-26T14:43:35;7.30;;;4.97;;
62788;SDS011;66401;42.016;21.454;2023-06-26T14:46:00;6.37;;;4.30;;
62788;SDS011;66401;42.016;21.454;2023-06-26T14:48:26;6.50;;;5.03;;
62788;SDS011;66401;42.016;21.454;2023-06-26T14:50:51;5.40;;;4.90;;
62788;SDS011;66401;42.016;21.454;2023-06-26T14:53:17;5.63;;;4.67;;
62788;SDS011;66401;42.016;21.454;2023-06-26T14:55:42;5.53;;;4.80;;
62788;SDS011;66401;42.016;21.454;2023-06-26T14:58:08;9.30;;;4.90;;
62788;SDS011;66401;42.016;21.454;2023-06-26T15:00:33;5.23;;;4.73;;
62788;SDS011;66401;42.016;21.454;2023-06-26T15:02:59;6.20;;;4.73;;
62788;SDS011;66401;42.016;21.454;2023-06-26T15:05:24;5.40;;;4.90;;
62788;SDS011;66401;42.016;21.454;2023-06-26T15:07:50;5.00;;;4.50;;
62788;SDS011;66401;42.016;21.454;2023-06-26T15:10:15;6.03;;;5.00;;
62788;SDS011;66401;42.016;21.454;2023-06-26T15:12:42;5.03;;;4.63;;
62788;SDS011;66401;42.016;21.454;2023-06-26T15:15:08;5.37;;;4.80;;
62788;SDS011;66401;42.016;21.454;2023-06-26T15:17:34;5.10;;;4.70;;
62788;SDS011;66401;42.016;21.454;2023-06-26T15:20:02;4.97;;;4.53;;
62788;SDS011;66401;42.016;21.454;2023-06-26T15:22:27;5.00;;;4.47;;
62788;SDS011;66401;42.016;21.454;2023-06-26T15:24:53;5.03;;;4.47;;
62788;SDS011;66401;42.016;21.454;2023-06-26T15:27:19;6.20;;;5.17;;
62788;SDS011;66401;42.016;21.454;2023-06-26T15:29:44;5.67;;;5.13;;
62788;SDS011;66401;42.016;21.454;2023-06-26T15:32:10;5.77;;;5.17;;
62788;SDS011;66401;42.016;21.454;2023-06-26T15:34:36;5.13;;;4.73;;
62788;SDS011;66401;42.016;21.454;2023-06-26T15:37:02;5.17;;;4.67;;
62788;SDS011;66401;42.016;21.454;2023-06-26T15:39:27;9.80;;;5.10;;
62788;SDS011;66401;42.016;21.454;2023-06-26T15:41:54;5.00;;;4.60;;
62788;SDS011;66401;42.016;21.454;2023-06-26T15:44:19;4.57;;;4.23;;
62788;SDS011;66401;42.016;21.454;2023-06-26T15:46:46;5.00;;;4.00;;
62788;SDS011;66401;42.016;21.454;2023-06-26T15:49:12;8.00;;;4.80;;